createdAt,value
2023-01-07T00:01:29.927Z,88.27
2023-01-07T00:04:32.842Z,88.29
2023-01-07T00:07:35.615Z,88.44
2023-01-07T00:10:38.488Z,88.37
2023-01-07T00:13:41.373Z,88.39
2023-01-07T00:16:44.277Z,88.36
2023-01-07T00:19:47.154Z,88.54
2023-01-07T00:22:51.364Z,88.46
2023-01-07T00:26:01.685Z,88.54
2023-01-07T00:29:06.391Z,88.65
2023-01-07T00:32:09.214Z,88.45
2023-01-07T00:35:23.308Z,88.54
2023-01-07T00:38:26.207Z,88.58
2023-01-07T00:41:29.195Z,88.57
2023-01-07T00:44:33.013Z,88.74
2023-01-07T00:47:36.088Z,88.61
2023-01-07T00:50:39.796Z,88.49
2023-01-07T00:53:43.080Z,88.48
2023-01-07T00:56:45.922Z,88.89
2023-01-07T00:59:48.950Z,88.83
2023-01-07T01:02:53.110Z,88.57
2023-01-07T01:06:27.919Z,88.51
2023-01-07T01:09:30.756Z,88.48
2023-01-07T01:12:36.875Z,88.47
2023-01-07T01:15:43.544Z,88.57
2023-01-07T01:18:46.847Z,88.99
2023-01-07T01:21:49.843Z,89.27
2023-01-07T01:24:52.864Z,89.35
2023-01-07T01:27:55.691Z,89.97
2023-01-07T01:30:58.530Z,89.32
2023-01-07T01:34:01.333Z,88.32
2023-01-07T01:37:04.447Z,88.31
2023-01-07T01:40:08.086Z,88.12
2023-01-07T01:43:47.150Z,87.83
2023-01-07T01:46:50.137Z,87.85
2023-01-07T01:50:17.664Z,88.03
2023-01-07T01:53:28.193Z,87.88
2023-01-07T01:56:35.725Z,87.80
2023-01-07T01:59:42.953Z,87.69
2023-01-07T02:02:50.920Z,87.82
2023-01-07T02:05:53.926Z,87.67
2023-01-07T02:08:56.907Z,88.45
2023-01-07T02:12:28.699Z,88.47
2023-01-07T02:15:31.439Z,88.81
2023-01-07T02:19:10.839Z,88.60
2023-01-07T02:22:31.126Z,88.36
2023-01-07T02:26:11.733Z,87.90
2023-01-07T02:29:39.483Z,87.75
2023-01-07T02:32:48.296Z,87.86
2023-01-07T02:36:25.628Z,88.03
2023-01-07T02:39:41.473Z,88.42
2023-01-07T02:42:56.327Z,88.49
2023-01-07T02:46:16.044Z,88.57
2023-01-07T02:49:18.970Z,88.52
2023-01-07T02:52:27.980Z,87.88
2023-01-07T02:55:39.628Z,87.64
2023-01-07T02:58:58.223Z,88.39
2023-01-07T03:02:11.777Z,88.11
2023-01-07T03:05:33.475Z,88.27
2023-01-07T03:08:53.535Z,88.41
2023-01-07T03:12:29.793Z,88.28
2023-01-07T03:16:07.519Z,88.15
2023-01-07T03:19:20.263Z,87.93
2023-01-07T03:22:28.009Z,87.90
2023-01-07T03:25:35.249Z,88.01
2023-01-07T03:28:42.560Z,88.16
2023-01-07T03:32:15.780Z,88.00
2023-01-07T03:35:21.983Z,88.25
2023-01-07T03:38:27.964Z,88.47
2023-01-07T03:41:49.569Z,88.33
2023-01-07T03:44:52.605Z,88.03
2023-01-07T03:47:57.173Z,88.23
2023-01-07T03:51:00.048Z,87.94
2023-01-07T03:54:03.094Z,88.29
2023-01-07T03:57:06.080Z,88.32
2023-01-07T04:00:11.482Z,88.31
2023-01-07T04:03:14.310Z,88.19
2023-01-07T04:06:17.188Z,88.25
2023-01-07T04:09:22.044Z,88.28
2023-01-07T04:12:24.915Z,88.34
2023-01-07T04:15:27.742Z,88.37
2023-01-07T04:18:30.595Z,88.41
2023-01-07T04:21:33.358Z,88.29
2023-01-07T04:24:36.261Z,88.37
2023-01-07T04:27:39.072Z,88.40
2023-01-07T04:30:42.266Z,88.71
2023-01-07T04:33:45.069Z,88.79
2023-01-07T04:36:48.075Z,89.00
2023-01-07T04:39:50.918Z,89.02
2023-01-07T04:42:53.720Z,88.99
2023-01-07T04:45:56.488Z,88.93
2023-01-07T04:48:59.412Z,89.03
2023-01-07T04:52:03.478Z,89.15
2023-01-07T04:55:06.879Z,89.43
2023-01-07T04:58:09.730Z,89.48
2023-01-07T05:01:12.697Z,89.68
2023-01-07T05:04:15.665Z,90.11
2023-01-07T05:07:18.532Z,90.24
2023-01-07T05:10:21.654Z,90.30
2023-01-07T05:13:24.963Z,90.31
2023-01-07T05:16:27.919Z,90.22
2023-01-07T05:19:30.779Z,90.25
2023-01-07T05:22:34.170Z,90.25
2023-01-07T05:25:36.997Z,90.38
2023-01-07T05:28:39.796Z,91.09
2023-01-07T05:31:42.715Z,90.34
2023-01-07T05:34:45.629Z,90.15
2023-01-07T05:37:48.462Z,90.47
2023-01-07T05:40:51.469Z,90.45
2023-01-07T05:43:54.262Z,90.57
2023-01-07T05:46:57.187Z,90.67
2023-01-07T05:50:00.111Z,91.27
2023-01-07T05:53:02.961Z,91.58
2023-01-07T05:56:06.004Z,91.88
2023-01-07T05:59:08.914Z,91.54
2023-01-07T06:02:11.656Z,91.20
2023-01-07T06:05:14.547Z,91.18
2023-01-07T06:08:17.570Z,90.98
2023-01-07T06:11:20.408Z,90.59
2023-01-07T06:14:23.329Z,90.87
2023-01-07T06:17:26.203Z,91.22
2023-01-07T06:20:34.538Z,91.42
2023-01-07T06:23:37.384Z,91.58
2023-01-07T06:26:40.246Z,91.72
2023-01-07T06:29:43.087Z,91.81
2023-01-07T06:32:45.941Z,91.76
2023-01-07T06:35:48.910Z,91.70
2023-01-07T06:38:51.717Z,91.62
2023-01-07T06:41:54.572Z,91.57
2023-01-07T06:44:57.521Z,91.86
2023-01-07T06:48:00.409Z,91.82
2023-01-07T06:51:03.513Z,91.87
2023-01-07T06:54:06.351Z,91.87
2023-01-07T06:57:09.086Z,91.92
2023-01-07T07:00:12.355Z,92.11
2023-01-07T07:03:15.167Z,91.96
2023-01-07T07:06:18.119Z,91.75
2023-01-07T07:09:21.004Z,91.74
2023-01-07T07:12:23.803Z,91.78
2023-01-07T07:15:26.705Z,91.71
2023-01-07T07:18:30.821Z,91.76
2023-01-07T07:21:33.692Z,91.41
2023-01-07T07:24:36.563Z,91.33
2023-01-07T07:27:39.382Z,91.70
2023-01-07T07:30:51.121Z,91.89
2023-01-07T07:33:53.983Z,92.10
2023-01-07T07:36:56.987Z,92.08
2023-01-07T07:39:59.802Z,92.00
2023-01-07T07:43:10.665Z,92.05
2023-01-07T07:46:15.787Z,92.05
2023-01-07T07:49:18.712Z,92.00
2023-01-07T07:52:21.547Z,91.90
2023-01-07T07:55:26.469Z,91.74
2023-01-07T07:58:29.777Z,91.66
2023-01-07T08:01:32.799Z,91.71
2023-01-07T08:04:35.761Z,91.73
2023-01-07T08:07:39.387Z,91.52
2023-01-07T08:10:42.428Z,91.07
2023-01-07T08:13:45.265Z,90.83
2023-01-07T08:16:48.100Z,90.93
2023-01-07T08:19:50.930Z,90.53
2023-01-07T08:22:54.130Z,90.20
2023-01-07T08:26:01.199Z,89.96
2023-01-07T08:29:04.096Z,89.58
2023-01-07T08:32:07.190Z,89.49
2023-01-07T08:35:10.354Z,89.27
2023-01-07T08:38:13.158Z,89.07
2023-01-07T08:41:15.991Z,88.85
2023-01-07T08:44:18.797Z,88.62
2023-01-07T08:47:21.765Z,88.37
2023-01-07T08:50:34.495Z,87.72
2023-01-07T08:53:38.013Z,87.28
2023-01-07T08:56:40.982Z,86.54
2023-01-07T08:59:44.355Z,86.52
2023-01-07T09:02:48.337Z,86.48
2023-01-07T09:05:51.254Z,86.37
2023-01-07T09:08:54.116Z,84.98
2023-01-07T09:11:57.534Z,84.58
2023-01-07T09:15:00.602Z,84.96
2023-01-07T09:18:03.818Z,84.28
2023-01-07T09:21:06.820Z,83.56
2023-01-07T09:24:09.655Z,81.79
2023-01-07T09:27:12.536Z,82.37
2023-01-07T09:30:16.226Z,82.14
2023-01-07T09:33:19.165Z,80.61
2023-01-07T09:36:22.064Z,80.16
2023-01-07T09:39:25.116Z,79.69
2023-01-07T09:42:44.006Z,79.26
2023-01-07T09:45:50.784Z,79.47
2023-01-07T09:49:03.524Z,79.90
2023-01-07T09:52:17.949Z,79.63
2023-01-07T09:58:18.475Z,80.10
2023-01-07T10:01:52.959Z,79.89
2023-01-07T10:05:58.313Z,80.04
2023-01-07T10:09:44.043Z,79.59
2023-01-07T10:13:31.844Z,79.86
2023-01-07T10:17:04.969Z,80.24
2023-01-07T10:20:52.913Z,80.48
2023-01-07T10:24:22.094Z,80.53
2023-01-07T10:27:46.942Z,79.95
2023-01-07T10:31:22.172Z,80.53
2023-01-07T10:34:50.068Z,81.32
2023-01-07T10:38:08.383Z,81.08
2023-01-07T10:42:07.300Z,80.37
2023-01-07T10:45:23.000Z,80.03
2023-01-07T10:48:41.854Z,79.24
2023-01-07T10:52:06.151Z,78.87
2023-01-07T10:55:26.330Z,78.33
2023-01-07T10:58:44.084Z,77.99
2023-01-07T11:01:59.117Z,77.25
2023-01-07T11:05:03.191Z,76.96
2023-01-07T11:08:16.195Z,76.62
2023-01-07T11:11:24.165Z,76.04
2023-01-07T11:14:37.016Z,76.80
2023-01-07T11:19:46.533Z,77.27
2023-01-07T11:22:58.181Z,77.12
2023-01-07T11:26:18.675Z,75.98
2023-01-07T11:29:40.124Z,76.49
2023-01-07T11:32:54.526Z,76.04
2023-01-07T11:35:57.837Z,75.61
2023-01-07T11:39:11.323Z,75.67
2023-01-07T11:42:38.512Z,75.21
2023-01-07T11:46:21.178Z,74.56
2023-01-07T11:50:02.510Z,73.92
2023-01-07T11:53:14.640Z,71.09
2023-01-07T11:56:21.096Z,71.54
2023-01-07T11:59:31.105Z,72.37
2023-01-07T12:02:37.701Z,73.38
2023-01-07T12:05:45.292Z,73.80
2023-01-07T12:08:59.316Z,74.12
2023-01-07T12:12:31.991Z,74.50
2023-01-07T12:15:52.056Z,74.46
2023-01-07T12:19:04.817Z,74.04
2023-01-07T12:23:08.619Z,73.48
2023-01-07T12:26:38.477Z,73.93
2023-01-07T12:30:30.995Z,73.54
2023-01-07T12:34:08.022Z,73.59
2023-01-07T12:37:44.107Z,74.30
2023-01-07T12:41:10.915Z,74.88
2023-01-07T12:44:46.733Z,75.36
2023-01-07T12:48:22.748Z,75.83
2023-01-07T12:51:34.095Z,76.05
2023-01-07T12:54:43.096Z,76.46
2023-01-07T12:58:00.968Z,76.63
2023-01-07T13:01:33.931Z,76.56
2023-01-07T13:04:40.755Z,76.05
2023-01-07T13:13:59.522Z,76.74
2023-01-07T13:17:37.348Z,76.26
2023-01-07T13:21:17.133Z,75.94
2023-01-07T13:24:55.983Z,75.79
2023-01-07T13:28:23.361Z,75.57
2023-01-07T13:31:45.507Z,75.47
2023-01-07T13:35:30.161Z,75.32
2023-01-07T13:39:03.417Z,75.25
2023-01-07T13:42:52.649Z,74.78
2023-01-07T13:46:03.897Z,74.99
2023-01-07T13:49:06.198Z,75.08
2023-01-07T13:52:23.830Z,75.32
2023-01-07T13:55:35.994Z,75.65
2023-01-07T13:58:49.690Z,75.40
2023-01-07T14:02:18.232Z,75.80
2023-01-07T14:08:00.039Z,76.16
2023-01-07T14:11:35.387Z,76.39
2023-01-07T14:15:11.948Z,76.60
2023-01-07T14:18:36.174Z,76.91
2023-01-07T14:22:11.722Z,77.12
2023-01-07T14:25:45.611Z,77.49
2023-01-07T14:29:41.788Z,77.82
2023-01-07T14:33:02.955Z,77.98
2023-01-07T14:37:00.979Z,78.42
2023-01-07T14:40:33.749Z,79.00
2023-01-07T14:43:46.734Z,79.29
2023-01-07T14:46:52.665Z,79.16
2023-01-07T14:50:35.405Z,79.53
2023-01-07T14:54:00.813Z,79.82
2023-01-07T14:57:40.330Z,79.98
2023-01-07T15:00:59.111Z,80.24
2023-01-07T15:06:46.161Z,81.07
2023-01-07T15:10:16.717Z,81.72
2023-01-07T15:14:00.242Z,81.70
2023-01-07T15:17:06.762Z,81.83
2023-01-07T15:20:13.718Z,82.22
2023-01-07T15:23:45.590Z,82.50
2023-01-07T15:27:29.625Z,82.67
2023-01-07T15:30:50.697Z,83.10
2023-01-07T15:34:13.660Z,83.49
2023-01-07T15:37:19.088Z,83.75
2023-01-07T15:40:26.585Z,83.66
2023-01-07T15:43:32.139Z,83.53
2023-01-07T15:46:41.289Z,83.35
2023-01-07T15:49:44.421Z,84.06
2023-01-07T15:52:57.098Z,84.06
2023-01-07T15:56:10.363Z,84.63
2023-01-07T15:59:27.908Z,85.30
2023-01-07T16:02:44.221Z,85.22
2023-01-07T16:05:48.179Z,85.29
2023-01-07T16:08:51.875Z,85.52
2023-01-07T16:11:55.375Z,85.97
2023-01-07T16:14:58.794Z,85.92
2023-01-07T16:18:19.327Z,86.01
2023-01-07T16:21:35.925Z,85.74
2023-01-07T16:24:50.818Z,86.21
2023-01-07T16:27:55.720Z,86.51
2023-01-07T16:31:00.242Z,86.87
2023-01-07T16:34:25.639Z,86.78
2023-01-07T16:37:30.176Z,86.84
2023-01-07T16:40:38.847Z,86.79
2023-01-07T16:43:45.351Z,86.64
2023-01-07T16:47:15.659Z,86.53
2023-01-07T16:50:19.559Z,85.86
2023-01-07T16:53:28.274Z,85.87
2023-01-07T16:56:31.612Z,86.55
2023-01-07T16:59:38.843Z,86.96
2023-01-07T17:02:54.323Z,87.47
2023-01-07T17:06:09.136Z,87.78
2023-01-07T17:09:29.156Z,88.08
2023-01-07T17:12:37.651Z,87.96
2023-01-07T17:15:43.263Z,87.48
2023-01-07T17:18:46.817Z,87.57
2023-01-07T17:21:50.019Z,87.72
2023-01-07T17:24:53.722Z,87.48
2023-01-07T17:28:01.136Z,87.62
2023-01-07T17:31:06.122Z,86.57
2023-01-07T17:34:16.123Z,86.27
2023-01-07T17:37:19.557Z,86.42
2023-01-07T17:40:23.173Z,86.49
2023-01-07T17:43:38.654Z,86.61
2023-01-07T17:46:42.588Z,86.64
2023-01-07T17:49:47.854Z,86.74
2023-01-07T17:52:54.459Z,86.58
2023-01-07T17:55:57.836Z,86.81
2023-01-07T17:59:04.725Z,87.04
2023-01-07T18:02:16.640Z,86.91
2023-01-07T18:05:24.521Z,87.09
2023-01-07T18:08:27.617Z,86.91
2023-01-07T18:11:53.975Z,87.56
2023-01-07T18:15:02.840Z,88.04
2023-01-07T18:18:05.967Z,87.42
2023-01-07T18:21:12.235Z,86.68
2023-01-07T18:24:21.120Z,86.72
2023-01-07T18:27:24.106Z,86.43
2023-01-07T18:30:27.912Z,86.34
2023-01-07T18:33:30.920Z,86.16
2023-01-07T18:36:34.481Z,86.21
2023-01-07T18:39:37.683Z,86.51
2023-01-07T18:42:40.624Z,86.50
2023-01-07T18:45:45.250Z,86.59
2023-01-07T18:48:48.408Z,86.74
2023-01-07T18:53:18.946Z,86.75
2023-01-07T18:56:21.797Z,87.03
2023-01-07T18:59:25.141Z,87.39
2023-01-07T19:02:28.266Z,87.18
2023-01-07T19:05:32.636Z,87.29
2023-01-07T19:08:36.018Z,87.76
2023-01-07T19:11:39.558Z,87.82
2023-01-07T19:22:32.025Z,88.39
2023-01-07T19:25:36.240Z,88.65
2023-01-07T19:28:39.879Z,88.67
2023-01-07T19:31:45.650Z,88.79
2023-01-07T19:34:53.211Z,88.70
2023-01-07T19:37:56.440Z,88.96
2023-01-07T19:40:59.436Z,89.21
2023-01-07T19:44:02.537Z,89.44
2023-01-07T19:47:47.702Z,89.69
2023-01-07T19:51:02.690Z,89.53
2023-01-07T19:54:07.332Z,89.78
2023-01-07T19:57:11.903Z,89.79
2023-01-07T20:00:15.225Z,89.97
2023-01-07T20:03:18.251Z,90.12
2023-01-07T20:06:25.288Z,90.18
2023-01-07T20:09:28.301Z,90.15
2023-01-07T20:12:32.029Z,89.85
2023-01-07T20:15:35.283Z,89.84
2023-01-07T20:18:44.231Z,89.86
2023-01-07T20:21:48.401Z,90.13
2023-01-07T20:25:35.963Z,90.46
2023-01-07T20:28:40.135Z,90.42
2023-01-07T20:31:44.644Z,90.47
2023-01-07T20:34:47.881Z,90.43
2023-01-07T20:37:51.263Z,90.23
2023-01-07T20:40:55.162Z,90.36
2023-01-07T20:44:01.568Z,90.62
2023-01-07T20:47:05.440Z,90.65
2023-01-07T20:50:10.661Z,90.88
2023-01-07T20:53:13.654Z,91.52
2023-01-07T20:56:19.675Z,90.29
2023-01-07T20:59:22.556Z,89.40
2023-01-07T21:02:28.078Z,88.62
2023-01-07T21:05:31.687Z,88.90
2023-01-07T21:08:35.126Z,89.16
2023-01-07T21:11:38.200Z,89.22
2023-01-07T21:14:40.981Z,89.01
2023-01-07T21:17:44.588Z,88.94
2023-01-07T21:20:48.685Z,88.81
2023-01-07T21:23:54.509Z,88.84
2023-01-07T21:26:58.634Z,89.02
2023-01-07T21:30:03.768Z,88.99
2023-01-07T21:33:08.860Z,89.09
2023-01-07T21:36:15.501Z,89.32
2023-01-07T21:39:20.035Z,89.31
2023-01-07T21:42:23.353Z,89.43
2023-01-07T21:45:26.517Z,89.44
2023-01-07T21:48:33.562Z,89.50
2023-01-07T21:53:58.624Z,89.31
2023-01-07T21:57:17.022Z,89.33
2023-01-07T22:00:35.319Z,89.35
2023-01-07T22:03:38.631Z,88.86
2023-01-07T22:06:44.511Z,88.72
2023-01-07T22:10:05.642Z,89.10
2023-01-07T22:13:34.123Z,89.30
2023-01-07T22:17:58.257Z,89.00
2023-01-07T22:21:21.447Z,88.86
2023-01-07T22:24:25.603Z,88.72
2023-01-07T22:27:38.550Z,88.56
2023-01-07T22:31:15.370Z,88.54
2023-01-07T22:34:19.476Z,88.57
2023-01-07T22:37:27.365Z,88.38
2023-01-07T22:41:13.378Z,88.28
2023-01-07T22:44:32.379Z,88.49
2023-01-07T22:47:42.254Z,88.37
2023-01-07T22:50:45.595Z,88.37
2023-01-07T22:56:19.269Z,88.27
2023-01-07T22:59:47.043Z,88.16
2023-01-07T23:03:09.068Z,88.09
2023-01-07T23:06:30.068Z,88.00
2023-01-07T23:09:35.480Z,88.04
2023-01-07T23:12:46.325Z,88.07
2023-01-07T23:15:49.588Z,88.02
2023-01-07T23:19:15.226Z,87.99
2023-01-07T23:22:33.221Z,87.80
2023-01-07T23:25:38.562Z,87.94
2023-01-07T23:28:50.802Z,88.06
2023-01-07T23:31:59.790Z,87.88
2023-01-07T23:35:15.392Z,87.89
2023-01-07T23:38:30.178Z,87.89
2023-01-07T23:41:41.753Z,87.86
2023-01-07T23:46:41.225Z,87.94
2023-01-07T23:49:52.332Z,87.95
2023-01-07T23:53:02.750Z,87.94
2023-01-07T23:56:24.694Z,88.03
2023-01-07T23:59:49.578Z,87.80
